createdAt,value
2019-05-12T00:01:18.507Z,84.90
2019-05-12T00:03:48.439Z,79.30
2019-05-12T00:06:18.412Z,81.80
2019-05-12T00:08:48.720Z,84.10
2019-05-12T00:11:18.595Z,85.50
2019-05-12T00:13:48.571Z,86.90
2019-05-12T00:16:18.925Z,86.70
2019-05-12T00:18:49.012Z,84.80
2019-05-12T00:21:18.678Z,83.70
2019-05-12T00:24:07.930Z,82.70
2019-05-12T00:26:38.294Z,83.60
2019-05-12T00:29:08.393Z,87.00
2019-05-12T00:31:39.302Z,86.10
2019-05-12T00:34:09.294Z,86.20
2019-05-12T00:36:38.838Z,84.40
2019-05-12T00:39:11.185Z,81.60
2019-05-12T00:41:44.242Z,82.50
2019-05-12T00:44:12.949Z,85.60
2019-05-12T00:46:42.837Z,85.90
2019-05-12T00:49:13.098Z,88.00
2019-05-12T00:51:48.499Z,86.40
2019-05-12T00:54:18.176Z,88.00
2019-05-12T00:56:50.145Z,88.70
2019-05-12T00:59:20.134Z,87.30
2019-05-12T01:01:50.243Z,85.20
2019-05-12T01:04:20.817Z,88.20
2019-05-12T01:06:52.009Z,85.70
2019-05-12T01:09:22.329Z,86.30
2019-05-12T01:11:52.439Z,86.90
2019-05-12T01:14:22.216Z,88.00
2019-05-12T01:16:51.943Z,87.70
2019-05-12T01:19:22.050Z,86.80
2019-05-12T01:21:51.634Z,84.60
2019-05-12T01:24:21.952Z,88.10
2019-05-12T01:26:51.637Z,88.40
2019-05-12T01:29:21.455Z,85.70
2019-05-12T01:31:58.578Z,86.90
2019-05-12T01:34:28.635Z,86.00
2019-05-12T01:37:18.395Z,85.10
2019-05-12T01:39:49.130Z,83.30
2019-05-12T01:42:19.289Z,87.40
2019-05-12T01:44:52.439Z,83.40
2019-05-12T01:47:22.715Z,83.30
2019-05-12T01:49:52.412Z,83.70
2019-05-12T01:52:22.208Z,84.00
2019-05-12T01:54:52.023Z,84.00
2019-05-12T01:57:22.496Z,84.50
2019-05-12T01:59:53.237Z,82.60
2019-05-12T02:02:23.146Z,83.40
2019-05-12T02:05:21.497Z,82.50
2019-05-12T02:07:53.245Z,81.20
2019-05-12T02:10:25.489Z,82.40
2019-05-12T02:12:55.743Z,81.40
2019-05-12T02:15:27.857Z,82.30
2019-05-12T02:17:58.946Z,82.10
2019-05-12T02:20:29.075Z,84.40
2019-05-12T02:22:58.876Z,86.90
2019-05-12T02:25:29.066Z,85.90
2019-05-12T02:27:58.816Z,84.10
2019-05-12T02:30:30.439Z,81.50
2019-05-12T02:33:00.547Z,82.40
2019-05-12T02:35:35.473Z,80.70
2019-05-12T02:38:05.343Z,81.10
2019-05-12T02:40:44.891Z,81.20
2019-05-12T02:43:15.508Z,80.90
2019-05-12T02:45:45.001Z,80.90
2019-05-12T02:48:15.442Z,81.50
2019-05-12T02:50:45.500Z,81.40
2019-05-12T02:53:15.653Z,80.00
2019-05-12T02:55:48.159Z,79.30
2019-05-12T02:58:19.316Z,79.30
2019-05-12T03:00:49.780Z,81.20
2019-05-12T03:03:25.136Z,79.80
2019-05-12T03:05:55.941Z,80.00
2019-05-12T03:08:26.941Z,81.80
2019-05-12T03:10:57.314Z,80.20
2019-05-12T03:13:26.838Z,79.70
2019-05-12T03:15:56.621Z,79.60
2019-05-12T03:18:26.764Z,79.30
2019-05-12T03:20:56.535Z,79.30
2019-05-12T03:23:26.267Z,79.00
2019-05-12T03:25:55.894Z,79.00
2019-05-12T03:28:25.949Z,78.80
2019-05-12T03:31:07.517Z,79.10
2019-05-12T03:33:42.661Z,79.10
2019-05-12T03:36:08.893Z,79.00
2019-05-12T03:38:37.700Z,78.70
2019-05-12T03:41:08.202Z,78.90
2019-05-12T03:43:38.228Z,83.40
2019-05-12T03:46:08.028Z,82.50
2019-05-12T03:48:37.838Z,79.90
2019-05-12T03:51:07.724Z,80.40
2019-05-12T03:53:39.767Z,79.20
2019-05-12T03:56:09.545Z,80.80
2019-05-12T03:58:39.442Z,79.70
2019-05-12T04:01:15.057Z,79.60
2019-05-12T04:03:45.156Z,83.90
2019-05-12T04:06:15.726Z,83.70
2019-05-12T04:08:45.938Z,83.70
2019-05-12T04:11:16.229Z,82.70
2019-05-12T04:13:46.083Z,83.40
2019-05-12T04:16:16.361Z,86.30
2019-05-12T04:18:47.650Z,83.80
2019-05-12T04:21:17.703Z,82.60
2019-05-12T04:23:47.369Z,81.60
2019-05-12T04:26:18.549Z,85.90
2019-05-12T04:28:48.687Z,83.00
2019-05-12T04:31:19.041Z,81.90
2019-05-12T04:33:49.397Z,81.50
2019-05-12T04:36:19.410Z,82.10
2019-05-12T04:38:50.052Z,81.50
2019-05-12T04:41:20.631Z,80.20
2019-05-12T04:43:50.509Z,83.30
2019-05-12T04:46:21.111Z,82.90
2019-05-12T04:48:54.467Z,80.10
2019-05-12T04:51:24.966Z,80.10
2019-05-12T04:53:54.977Z,80.00
2019-05-12T04:56:25.167Z,85.20
2019-05-12T04:58:54.930Z,80.60
2019-05-12T05:01:25.624Z,84.30
2019-05-12T05:03:58.853Z,84.20
2019-05-12T05:06:28.609Z,80.00
2019-05-12T05:08:58.922Z,85.30
2019-05-12T05:11:29.761Z,84.80
2019-05-12T05:13:59.560Z,80.80
2019-05-12T05:16:29.242Z,79.00
2019-05-12T05:18:59.481Z,83.00
2019-05-12T05:21:29.763Z,79.10
2019-05-12T05:23:59.488Z,79.40
2019-05-12T05:26:29.617Z,81.60
2019-05-12T05:28:59.736Z,81.60
2019-05-12T05:31:29.719Z,79.80
2019-05-12T05:33:59.563Z,78.20
2019-05-12T05:36:30.623Z,80.70
2019-05-12T05:39:02.242Z,77.70
2019-05-12T05:41:34.507Z,77.60
2019-05-12T05:44:08.474Z,76.40
2019-05-12T05:46:44.457Z,78.40
2019-05-12T05:49:15.871Z,78.00
2019-05-12T05:51:53.659Z,80.90
2019-05-12T05:54:22.702Z,82.70
2019-05-12T05:56:59.523Z,78.40
2019-05-12T05:59:41.053Z,79.40
2019-05-12T06:02:10.484Z,80.50
2019-05-12T06:04:45.461Z,79.80
2019-05-12T06:07:14.353Z,79.30
2019-05-12T06:09:44.675Z,80.50
2019-05-12T06:12:14.292Z,81.00
2019-05-12T06:14:46.748Z,81.10
2019-05-12T06:17:16.461Z,79.90
2019-05-12T06:19:46.954Z,78.90
2019-05-12T06:22:18.461Z,80.80
2019-05-12T06:24:56.872Z,77.80
2019-05-12T06:27:21.295Z,77.10
2019-05-12T06:29:52.467Z,78.70
2019-05-12T06:32:25.077Z,75.20
2019-05-12T06:35:01.371Z,78.20
2019-05-12T06:37:27.889Z,75.00
2019-05-12T06:40:00.652Z,76.50
2019-05-12T06:42:31.031Z,77.80
2019-05-12T06:45:03.279Z,77.00
2019-05-12T06:47:34.433Z,74.30
2019-05-12T06:50:05.117Z,75.70
2019-05-12T06:52:38.602Z,76.90
2019-05-12T06:55:07.095Z,76.40
2019-05-12T06:57:40.142Z,76.50
2019-05-12T07:00:14.404Z,75.40
2019-05-12T07:02:50.075Z,74.00
2019-05-12T07:05:16.071Z,74.40
2019-05-12T07:07:47.679Z,74.30
2019-05-12T07:10:35.607Z,74.00
2019-05-12T07:13:00.797Z,73.40
2019-05-12T07:15:23.370Z,74.00
2019-05-12T07:18:00.997Z,72.80
2019-05-12T07:20:35.429Z,71.10
2019-05-12T07:23:06.829Z,73.70
2019-05-12T07:25:37.229Z,73.60
2019-05-12T07:28:09.474Z,75.10
2019-05-12T07:30:39.509Z,72.40
2019-05-12T07:33:09.856Z,73.40
2019-05-12T07:35:44.459Z,73.60
2019-05-12T07:38:20.971Z,73.40
2019-05-12T07:40:49.674Z,71.10
2019-05-12T07:43:24.150Z,69.60
2019-05-12T07:46:02.518Z,71.70
2019-05-12T07:48:28.938Z,71.30
2019-05-12T07:51:00.765Z,73.40
2019-05-12T07:53:33.972Z,75.30
2019-05-12T07:56:04.297Z,72.10
2019-05-12T07:58:34.784Z,71.60
2019-05-12T08:01:07.730Z,71.10
2019-05-12T08:03:36.624Z,72.80
2019-05-12T08:06:06.915Z,71.30
2019-05-12T08:08:41.789Z,73.20
2019-05-12T08:11:08.362Z,74.30
2019-05-12T08:13:40.903Z,74.70
2019-05-12T08:16:10.410Z,72.90
2019-05-12T08:18:41.606Z,72.00
2019-05-12T08:21:13.807Z,73.70
2019-05-12T08:23:44.464Z,71.90
2019-05-12T08:26:18.685Z,70.50
2019-05-12T08:28:47.393Z,73.70
2019-05-12T08:31:23.558Z,69.20
2019-05-12T08:33:51.162Z,82.70
2019-05-12T08:36:23.462Z,81.50
2019-05-12T08:38:56.300Z,77.30
2019-05-12T08:41:26.119Z,74.40
2019-05-12T08:43:58.467Z,72.20
2019-05-12T08:46:27.532Z,75.60
2019-05-12T08:49:02.250Z,74.50
2019-05-12T08:51:29.067Z,73.00
2019-05-12T08:57:58.480Z,76.20
2019-05-12T09:00:50.315Z,72.90
2019-05-12T09:03:26.879Z,74.40
2019-05-12T09:05:55.582Z,75.50
2019-05-12T09:08:25.758Z,72.80
2019-05-12T09:10:56.191Z,73.50
2019-05-12T09:13:29.880Z,74.50
2019-05-12T09:15:59.815Z,75.70
2019-05-12T09:18:35.221Z,75.00
2019-05-12T09:21:03.724Z,74.80
2019-05-12T09:23:41.096Z,69.80
2019-05-12T09:26:05.339Z,73.90
2019-05-12T09:28:46.448Z,71.40
2019-05-12T09:31:07.027Z,70.90
2019-05-12T09:33:37.310Z,71.10
2019-05-12T09:36:11.459Z,69.20
2019-05-12T09:38:40.994Z,67.90
2019-05-12T09:41:15.348Z,68.10
2019-05-12T09:43:50.305Z,68.50
2019-05-12T09:46:18.435Z,67.90
2019-05-12T09:48:52.045Z,68.70
2019-05-12T09:51:20.898Z,65.60
2019-05-12T09:53:53.212Z,68.60
2019-05-12T09:56:23.960Z,63.90
2019-05-12T09:59:01.421Z,69.10
2019-05-12T10:01:29.364Z,68.10
2019-05-12T10:03:56.837Z,64.70
2019-05-12T10:06:27.655Z,65.70
2019-05-12T10:08:57.333Z,63.80
2019-05-12T10:11:27.056Z,65.30
2019-05-12T10:14:00.214Z,64.90
2019-05-12T10:16:28.972Z,64.40
2019-05-12T10:18:58.653Z,65.00
2019-05-12T10:21:28.811Z,68.60
2019-05-12T10:24:02.845Z,69.20
2019-05-12T10:26:34.287Z,69.70
2019-05-12T10:29:16.211Z,68.40
2019-05-12T10:31:39.358Z,67.70
2019-05-12T10:34:24.070Z,68.90
2019-05-12T10:36:54.439Z,68.60
2019-05-12T10:39:24.799Z,70.00
2019-05-12T10:41:54.876Z,70.90
2019-05-12T10:44:30.110Z,71.00
2019-05-12T10:46:59.438Z,67.10
2019-05-12T10:49:29.312Z,67.40
2019-05-12T10:51:59.134Z,66.60
2019-05-12T10:54:29.323Z,69.00
2019-05-12T10:56:59.035Z,65.40
2019-05-12T10:59:33.211Z,66.60
2019-05-12T11:02:00.552Z,68.10
2019-05-12T11:04:37.023Z,66.50
2019-05-12T11:07:04.679Z,69.40
2019-05-12T11:09:34.746Z,65.40
2019-05-12T11:12:04.735Z,63.00
2019-05-12T11:14:34.704Z,63.30
2019-05-12T11:17:10.259Z,65.40
2019-05-12T11:19:45.854Z,65.10
2019-05-12T11:22:13.894Z,64.50
2019-05-12T11:24:46.990Z,62.70
2019-05-12T11:27:17.119Z,64.10
2019-05-12T11:29:49.547Z,67.20
2019-05-12T11:32:19.696Z,61.80
2019-05-12T11:34:53.501Z,64.70
2019-05-12T11:37:23.135Z,64.20
2019-05-12T11:39:53.575Z,64.70
2019-05-12T11:42:25.730Z,64.10
2019-05-12T11:44:55.691Z,63.90
2019-05-12T11:47:26.051Z,62.90
2019-05-12T11:49:58.462Z,63.60
2019-05-12T11:52:27.949Z,61.50
2019-05-12T11:54:58.002Z,62.20
2019-05-12T11:57:30.278Z,65.30
2019-05-12T12:00:02.355Z,61.10
2019-05-12T12:02:34.062Z,64.50
2019-05-12T12:05:03.403Z,62.00
2019-05-12T12:07:39.394Z,58.80
2019-05-12T12:10:06.952Z,57.40
2019-05-12T12:12:39.651Z,63.00
2019-05-12T12:15:20.393Z,60.90
2019-05-12T12:17:53.462Z,58.80
2019-05-12T12:20:24.238Z,59.80
2019-05-12T12:23:00.038Z,61.20
2019-05-12T12:25:30.403Z,59.80
2019-05-12T12:28:00.567Z,63.10
2019-05-12T12:30:30.447Z,62.60
2019-05-12T12:33:00.529Z,60.80
2019-05-12T12:35:30.497Z,59.40
2019-05-12T12:38:03.045Z,60.90
2019-05-12T12:40:32.930Z,59.50
2019-05-12T12:43:03.953Z,58.10
2019-05-12T12:45:40.560Z,61.00
2019-05-12T12:48:10.578Z,60.70
2019-05-12T12:50:40.723Z,59.70
2019-05-12T12:53:11.427Z,58.80
2019-05-12T12:55:43.737Z,60.40
2019-05-12T12:58:14.207Z,63.10
2019-05-12T13:00:47.991Z,58.20
2019-05-12T13:03:25.668Z,59.50
2019-05-12T13:05:54.234Z,61.10
2019-05-12T13:08:24.841Z,58.40
2019-05-12T13:10:55.315Z,58.90
2019-05-12T13:13:25.595Z,61.60
2019-05-12T13:15:56.804Z,57.40
2019-05-12T13:18:33.090Z,56.30
2019-05-12T13:20:58.437Z,56.80
2019-05-12T13:23:38.124Z,59.00
2019-05-12T13:26:00.660Z,60.60
2019-05-12T13:28:31.472Z,58.40
2019-05-12T13:31:21.433Z,60.30
2019-05-12T13:33:54.933Z,60.40
2019-05-12T13:36:29.599Z,60.60
2019-05-12T13:38:56.308Z,59.90
2019-05-12T13:41:26.892Z,63.40
2019-05-12T13:43:59.954Z,56.80
2019-05-12T13:46:29.929Z,59.80
2019-05-12T13:49:03.052Z,62.40
2019-05-12T13:51:33.420Z,53.80
2019-05-12T13:54:03.856Z,59.90
2019-05-12T13:56:36.551Z,56.50
2019-05-12T13:59:11.989Z,59.90
2019-05-12T14:01:40.635Z,62.60
2019-05-12T14:04:15.534Z,57.30
2019-05-12T14:06:45.556Z,58.30
2019-05-12T14:09:18.601Z,56.40
2019-05-12T14:11:48.573Z,60.70
2019-05-12T14:14:20.961Z,57.00
2019-05-12T14:16:58.678Z,55.10
2019-05-12T14:19:30.403Z,57.00
2019-05-12T14:21:59.813Z,59.40
2019-05-12T14:24:33.245Z,56.60
2019-05-12T14:27:04.102Z,56.50
2019-05-12T14:29:34.714Z,52.70
2019-05-12T14:32:05.391Z,56.50
2019-05-12T14:34:35.720Z,57.60
2019-05-12T14:37:10.389Z,55.60
2019-05-12T14:39:40.250Z,59.30
2019-05-12T14:42:13.440Z,55.50
2019-05-12T14:44:49.357Z,56.20
2019-05-12T14:47:19.141Z,60.60
2019-05-12T14:49:48.432Z,59.80
2019-05-12T14:52:19.076Z,59.90
2019-05-12T14:54:49.441Z,59.30
2019-05-12T14:57:19.548Z,63.90
2019-05-12T14:59:49.910Z,58.70
2019-05-12T15:02:29.427Z,57.10
2019-05-12T15:05:00.236Z,59.90
2019-05-12T15:07:31.261Z,56.10
2019-05-12T15:10:03.712Z,59.70
2019-05-12T15:12:33.563Z,61.40
2019-05-12T15:15:03.903Z,61.60
2019-05-12T15:17:35.942Z,61.00
2019-05-12T15:20:10.469Z,58.40
2019-05-12T15:22:42.933Z,56.80
2019-05-12T15:25:10.794Z,60.80
2019-05-12T15:27:45.225Z,60.10
2019-05-12T15:30:22.391Z,62.80
2019-05-12T15:33:04.772Z,60.50
2019-05-12T15:35:34.686Z,59.40
2019-05-12T15:38:09.487Z,56.70
2019-05-12T15:40:37.332Z,61.30
2019-05-12T15:43:09.474Z,59.90
2019-05-12T15:45:39.907Z,64.70
2019-05-12T15:48:10.356Z,61.10
2019-05-12T15:50:45.441Z,57.20
2019-05-12T15:53:22.270Z,54.60
2019-05-12T15:55:49.910Z,63.10
2019-05-12T15:58:18.791Z,57.90
2019-05-12T16:00:54.007Z,61.00
2019-05-12T16:03:23.975Z,59.00
2019-05-12T16:06:01.287Z,56.90
2019-05-12T16:08:28.645Z,62.70
2019-05-12T16:11:01.113Z,58.70
2019-05-12T16:13:33.819Z,61.00
2019-05-12T16:16:06.697Z,59.30
2019-05-12T16:18:40.619Z,55.00
2019-05-12T16:21:09.507Z,59.70
2019-05-12T16:23:39.968Z,57.80
2019-05-12T16:26:14.680Z,57.20
2019-05-12T16:28:44.069Z,57.00
2019-05-12T16:31:14.494Z,60.10
2019-05-12T16:33:44.929Z,59.20
2019-05-12T16:36:15.417Z,57.40
2019-05-12T16:38:50.115Z,58.00
2019-05-12T16:41:19.814Z,56.80
2019-05-12T16:43:50.554Z,60.30
2019-05-12T16:46:23.515Z,53.80
2019-05-12T16:48:56.757Z,56.90
2019-05-12T16:51:25.413Z,56.40
2019-05-12T16:53:55.475Z,57.20
2019-05-12T16:56:29.537Z,57.00
2019-05-12T16:58:58.597Z,57.30
2019-05-12T17:01:29.935Z,57.20
2019-05-12T17:04:00.400Z,56.10
2019-05-12T17:06:35.201Z,57.10
2019-05-12T17:09:03.429Z,60.30
2019-05-12T17:11:37.431Z,57.60
2019-05-12T17:14:05.846Z,58.80
2019-05-12T17:16:41.881Z,58.00
2019-05-12T17:19:11.249Z,61.30
2019-05-12T17:21:41.132Z,60.30
2019-05-12T17:24:10.955Z,61.70
2019-05-12T17:26:41.241Z,63.10
2019-05-12T17:29:13.665Z,63.10
2019-05-12T17:31:44.385Z,60.30
2019-05-12T17:34:15.669Z,63.20
2019-05-12T17:36:50.013Z,62.40
2019-05-12T17:39:17.770Z,60.60
2019-05-12T17:41:47.829Z,60.20
2019-05-12T17:44:18.960Z,57.50
2019-05-12T17:46:55.102Z,58.70
2019-05-12T17:49:30.568Z,58.80
2019-05-12T17:52:04.546Z,60.50
2019-05-12T17:54:30.998Z,61.10
2019-05-12T17:57:01.249Z,61.00
2019-05-12T17:59:33.285Z,62.90
2019-05-12T18:02:11.414Z,57.20
2019-05-12T18:04:38.835Z,65.20
2019-05-12T18:07:13.175Z,64.50
2019-05-12T18:09:41.249Z,65.50
2019-05-12T18:12:13.653Z,64.70
2019-05-12T18:14:54.891Z,64.60
2019-05-12T18:17:28.539Z,66.90
2019-05-12T18:20:00.928Z,67.90
2019-05-12T18:22:30.585Z,67.00
2019-05-12T18:25:04.132Z,65.70
2019-05-12T18:27:44.640Z,69.60
2019-05-12T18:30:11.643Z,64.40
2019-05-12T18:32:41.492Z,62.90
2019-05-12T18:35:13.427Z,67.10
2019-05-12T18:37:43.789Z,69.20
2019-05-12T18:40:14.687Z,70.00
2019-05-12T18:42:45.619Z,68.80
2019-05-12T18:45:18.037Z,64.70
2019-05-12T18:47:49.048Z,68.00
2019-05-12T18:50:27.017Z,72.70
2019-05-12T18:52:56.708Z,69.90
2019-05-12T18:55:29.353Z,70.30
2019-05-12T18:57:58.297Z,71.00
2019-05-12T19:00:28.059Z,72.40
2019-05-12T19:02:59.696Z,74.80
2019-05-12T19:05:31.144Z,68.20
2019-05-12T19:08:03.531Z,68.60
2019-05-12T19:10:33.470Z,70.90
2019-05-12T19:13:06.452Z,68.70
2019-05-12T19:15:35.084Z,67.00
2019-05-12T19:18:05.537Z,69.10
2019-05-12T19:20:37.649Z,67.00
2019-05-12T19:23:08.057Z,65.90
2019-05-12T19:25:40.710Z,68.40
2019-05-12T19:28:10.622Z,71.90
2019-05-12T19:30:43.735Z,67.40
2019-05-12T19:33:13.891Z,64.80
2019-05-12T19:35:43.677Z,67.80
2019-05-12T19:38:15.595Z,66.50
2019-05-12T19:40:47.227Z,72.00
2019-05-12T19:43:17.980Z,75.90
2019-05-12T19:45:53.690Z,72.10
2019-05-12T19:48:26.541Z,68.00
2019-05-12T19:50:56.639Z,68.90
2019-05-12T19:53:23.968Z,69.60
2019-05-12T19:55:53.839Z,66.70
2019-05-12T19:58:23.931Z,68.90
2019-05-12T20:00:58.743Z,66.30
2019-05-12T20:03:29.409Z,65.00
2019-05-12T20:05:59.148Z,64.70
2019-05-12T20:08:30.061Z,65.50
2019-05-12T20:11:10.012Z,64.60
2019-05-12T20:13:40.199Z,66.10
2019-05-12T20:16:11.631Z,66.50
2019-05-12T20:18:44.101Z,65.30
2019-05-12T20:21:13.818Z,64.90
2019-05-12T20:23:44.022Z,65.50
2019-05-12T20:26:14.649Z,66.70
2019-05-12T20:28:50.590Z,68.20
2019-05-12T20:31:15.868Z,70.80
2019-05-12T20:33:47.459Z,67.90
2019-05-12T20:36:20.670Z,67.00
2019-05-12T20:38:48.746Z,66.40
2019-05-12T20:41:23.481Z,69.40
2019-05-12T20:43:50.675Z,73.00
2019-05-12T20:46:24.098Z,69.30
2019-05-12T20:48:53.840Z,70.80
2019-05-12T20:51:24.489Z,71.00
2019-05-12T20:53:54.669Z,73.10
2019-05-12T20:56:25.034Z,74.00
2019-05-12T20:58:55.438Z,73.20
2019-05-12T21:01:29.921Z,71.10
2019-05-12T21:03:57.182Z,70.20
2019-05-12T21:06:53.967Z,76.00
2019-05-12T21:09:25.490Z,73.90
2019-05-12T21:11:55.553Z,73.60
2019-05-12T21:14:25.851Z,71.50
2019-05-12T21:16:56.043Z,76.00
2019-05-12T21:19:29.173Z,72.10
2019-05-12T21:21:59.199Z,75.40
2019-05-12T21:24:34.900Z,73.80
2019-05-12T21:27:03.892Z,73.50
2019-05-12T21:29:33.965Z,73.20
2019-05-12T21:32:11.894Z,77.00
2019-05-12T21:34:36.509Z,78.00
2019-05-12T21:37:06.825Z,74.10
2019-05-12T21:39:40.697Z,71.80
2019-05-12T21:42:08.508Z,73.60
2019-05-12T21:44:41.328Z,73.00
2019-05-12T21:47:13.701Z,74.40
2019-05-12T21:49:48.137Z,71.60
2019-05-12T21:52:15.725Z,70.50
2019-05-12T21:54:45.591Z,74.40
2019-05-12T21:57:19.167Z,71.60
2019-05-12T21:59:46.992Z,72.90
2019-05-12T22:02:19.666Z,72.70
2019-05-12T22:04:50.186Z,72.90
2019-05-12T22:07:21.302Z,73.10
2019-05-12T22:09:53.689Z,73.70
2019-05-12T22:12:28.437Z,72.30
2019-05-12T22:14:55.267Z,73.80
2019-05-12T22:17:28.084Z,75.90
2019-05-12T22:19:58.908Z,74.00
2019-05-12T22:22:30.033Z,80.00
2019-05-12T22:25:00.964Z,79.90
2019-05-12T22:27:31.029Z,81.50
2019-05-12T22:30:06.951Z,79.60
2019-05-12T22:32:37.378Z,81.60
2019-05-12T22:35:07.406Z,77.20
2019-05-12T22:37:39.234Z,78.40
2019-05-12T22:40:17.271Z,77.00
2019-05-12T22:42:40.554Z,75.10
2019-05-12T22:45:15.076Z,76.60
2019-05-12T22:47:43.957Z,76.40
2019-05-12T22:50:14.061Z,74.00
2019-05-12T22:52:47.357Z,74.70
2019-05-12T22:55:32.231Z,72.70
2019-05-12T22:57:58.035Z,74.10
2019-05-12T23:00:28.288Z,76.90
2019-05-12T23:03:00.455Z,76.40
2019-05-12T23:05:30.203Z,76.80
2019-05-12T23:08:05.800Z,75.00
2019-05-12T23:10:31.830Z,73.80
2019-05-12T23:13:04.841Z,74.00
2019-05-12T23:15:33.634Z,79.10
2019-05-12T23:18:04.307Z,84.30
2019-05-12T23:20:35.678Z,76.30
2019-05-12T23:23:09.065Z,81.20
2019-05-12T23:25:38.619Z,80.90
2019-05-12T23:28:10.598Z,81.70
2019-05-12T23:30:43.803Z,76.50
2019-05-12T23:33:14.080Z,76.40
2019-05-12T23:35:44.470Z,78.60
2019-05-12T23:38:16.765Z,79.30
2019-05-12T23:40:47.097Z,78.10
2019-05-12T23:43:16.876Z,80.90
2019-05-12T23:45:47.949Z,76.30
2019-05-12T23:48:17.945Z,76.10
2019-05-12T23:50:48.131Z,79.40
2019-05-12T23:53:18.292Z,77.50
2019-05-12T23:55:48.590Z,79.30
2019-05-12T23:58:18.610Z,77.50
